Time;durP1;ratioP1;P1;durP2;ratioP2;P2;SDS_P1;SDS_P2;PMS_P1;PMS_P2;Temp;Humidity;BMP_temperature;BMP_pressure;BME280_temperature;BME280_humidity;BME280_pressure;Samples;Min_cycle;Max_cycle;Signal;HPM_P1;HPM_P2
2023/12/02 00:01:40;;;;;;;19.08;10.50;;;0.40;99.90;;;;;;5093238;28;20224;-57
2023/12/02 00:04:05;;;;;;;15.38;10.45;;;0.40;99.90;;;;;;5093635;28;20643;-55
2023/12/02 00:06:31;;;;;;;15.63;10.27;;;0.50;99.90;;;;;;5093242;28;20624;-56
2023/12/02 00:08:56;;;;;;;17.45;10.10;;;0.60;99.90;;;;;;5092915;28;20632;-55
2023/12/02 00:11:22;;;;;;;17.02;10.20;;;0.60;99.90;;;;;;5093074;28;20190;-56
2023/12/02 00:13:47;;;;;;;13.40;9.85;;;0.50;99.90;;;;;;5093239;28;20165;-57
2023/12/02 00:16:13;;;;;;;13.23;9.38;;;0.50;99.90;;;;;;5093028;28;20173;-56
2023/12/02 00:18:39;;;;;;;13.00;8.98;;;0.50;99.90;;;;;;5093238;28;20253;-56
2023/12/02 00:21:05;;;;;;;13.50;8.43;;;0.50;99.90;;;;;;5113518;28;22032;-58
2023/12/02 00:23:31;;;;;;;13.82;9.32;;;0.40;99.90;;;;;;5113254;28;20265;-57
2023/12/02 00:25:56;;;;;;;13.68;8.75;;;0.50;99.90;;;;;;5113187;28;20171;-56
2023/12/02 00:28:22;;;;;;;14.18;8.50;;;0.50;99.90;;;;;;5112696;28;20581;-57
2023/12/02 00:30:47;;;;;;;12.27;8.23;;;0.50;99.90;;;;;;5112997;28;20697;-55
2023/12/02 00:33:13;;;;;;;14.90;9.23;;;0.50;99.90;;;;;;5112985;28;20666;-58
2023/12/02 00:35:39;;;;;;;15.20;9.55;;;0.50;99.90;;;;;;5112945;28;20621;-56
2023/12/02 00:38:04;;;;;;;12.63;8.38;;;0.60;99.90;;;;;;5113445;28;20169;-55
2023/12/02 00:40:30;;;;;;;14.60;9.07;;;0.60;99.90;;;;;;5112858;28;20570;-56
2023/12/02 00:42:56;;;;;;;13.25;10.05;;;0.60;99.90;;;;;;5111974;28;20237;-54
2023/12/02 00:45:21;;;;;;;14.75;9.63;;;0.70;99.90;;;;;;5112401;28;20168;-57
2023/12/02 00:47:47;;;;;;;15.48;9.65;;;0.70;99.90;;;;;;5112910;28;20176;-57
2023/12/02 00:50:12;;;;;;;14.75;8.60;;;0.60;99.90;;;;;;5099247;28;20166;-57
2023/12/02 00:52:38;;;;;;;16.13;9.13;;;0.60;99.90;;;;;;5109120;28;20227;-57
2023/12/02 00:55:04;;;;;;;15.32;9.60;;;0.60;99.90;;;;;;5113005;28;20245;-57
2023/12/02 00:57:29;;;;;;;16.17;10.18;;;0.70;99.90;;;;;;5112535;28;20164;-58
2023/12/02 00:59:55;;;;;;;13.80;9.65;;;0.70;99.90;;;;;;5112430;28;20168;-57
2023/12/02 01:02:20;;;;;;;14.98;10.25;;;0.60;99.90;;;;;;5111931;28;20204;-57
2023/12/02 01:04:46;;;;;;;15.80;9.75;;;0.60;99.90;;;;;;5112152;28;20165;-58
2023/12/02 01:07:11;;;;;;;19.00;9.68;;;0.60;99.90;;;;;;5112274;28;20644;-58
2023/12/02 01:09:37;;;;;;;13.88;9.20;;;0.60;99.90;;;;;;5112344;28;20165;-53
2023/12/02 01:12:03;;;;;;;14.48;9.90;;;0.60;99.90;;;;;;5112934;28;20175;-57
2023/12/02 01:14:28;;;;;;;15.52;8.98;;;0.60;99.90;;;;;;5112525;28;20670;-57
2023/12/02 01:16:54;;;;;;;15.73;9.48;;;0.60;99.90;;;;;;5112225;28;20202;-57
2023/12/02 01:19:21;;;;;;;16.70;9.48;;;0.60;99.90;;;;;;5106595;28;20597;-57
2023/12/02 01:21:46;;;;;;;14.77;9.40;;;0.70;99.90;;;;;;5091737;28;20244;-57
2023/12/02 01:24:13;;;;;;;13.15;9.23;;;0.70;99.90;;;;;;5091956;28;20192;-57
2023/12/02 01:26:39;;;;;;;17.73;9.98;;;0.70;99.90;;;;;;5091823;28;20218;-57
2023/12/02 01:29:04;;;;;;;18.10;10.10;;;0.70;99.90;;;;;;5092120;28;20162;-57
2023/12/02 01:31:30;;;;;;;16.27;9.32;;;0.60;99.90;;;;;;5091643;28;20162;-57
2023/12/02 01:33:55;;;;;;;16.85;9.57;;;0.70;99.90;;;;;;5091651;28;20219;-56
2023/12/02 01:36:21;;;;;;;17.15;9.90;;;0.70;99.90;;;;;;5091622;28;20530;-58
2023/12/02 01:38:46;;;;;;;15.85;10.00;;;0.60;99.90;;;;;;5091828;28;20180;-55
2023/12/02 01:41:12;;;;;;;15.57;9.88;;;0.70;99.90;;;;;;5091450;28;20651;-55
2023/12/02 01:43:39;;;;;;;14.45;9.30;;;0.70;99.90;;;;;;5091417;28;20630;-57
2023/12/02 01:46:05;;;;;;;15.75;10.10;;;0.70;99.90;;;;;;5091957;28;20244;-58
2023/12/02 01:48:34;;;;;;;15.43;10.25;;;0.70;99.90;;;;;;5091464;28;20228;-56
2023/12/02 01:51:00;;;;;;;15.77;10.52;;;0.80;99.90;;;;;;5091607;28;20303;-55
2023/12/02 01:53:26;;;;;;;15.40;11.23;;;0.80;99.90;;;;;;5091884;28;20173;-55
2023/12/02 01:55:52;;;;;;;15.88;10.63;;;0.70;99.90;;;;;;5095639;28;20638;-55
2023/12/02 01:58:18;;;;;;;16.33;11.38;;;0.80;99.90;;;;;;5095621;28;20165;-55
2023/12/02 02:00:44;;;;;;;16.17;10.35;;;0.80;99.90;;;;;;5095587;28;20173;-56
2023/12/02 02:03:09;;;;;;;15.50;10.45;;;0.80;99.90;;;;;;5095510;28;20205;-55
2023/12/02 02:05:36;;;;;;;19.27;11.45;;;0.90;99.90;;;;;;5095880;28;20173;-55
2023/12/02 02:08:01;;;;;;;17.63;10.07;;;0.90;99.90;;;;;;5095745;28;20173;-55
2023/12/02 02:10:27;;;;;;;15.10;10.75;;;0.90;99.90;;;;;;5095640;28;20165;-56
2023/12/02 02:12:52;;;;;;;20.13;10.77;;;0.80;99.90;;;;;;5095378;28;20165;-56
2023/12/02 02:15:18;;;;;;;15.63;10.15;;;0.80;99.90;;;;;;5095233;28;20181;-55
2023/12/02 02:17:44;;;;;;;15.50;10.90;;;0.90;99.90;;;;;;5095294;28;20177;-56
2023/12/02 02:20:10;;;;;;;19.08;11.02;;;1.00;99.90;;;;;;5109501;28;20176;-56
2023/12/02 02:22:35;;;;;;;18.88;11.20;;;0.90;99.90;;;;;;5115578;28;20612;-56
2023/12/02 02:25:01;;;;;;;17.58;10.55;;;0.80;99.90;;;;;;5115561;28;20169;-55
2023/12/02 02:27:27;;;;;;;15.57;10.27;;;0.70;99.90;;;;;;5115472;28;20170;-55
2023/12/02 02:29:52;;;;;;;29.48;11.65;;;0.80;99.90;;;;;;5115734;28;20191;-53
2023/12/02 02:32:18;;;;;;;15.93;10.13;;;0.90;99.90;;;;;;5115404;28;20173;-56
2023/12/02 02:34:44;;;;;;;19.73;10.65;;;0.90;99.90;;;;;;5113488;28;20251;-55
2023/12/02 02:37:09;;;;;;;14.32;9.93;;;0.80;99.90;;;;;;5115261;28;20183;-55
2023/12/02 02:39:35;;;;;;;17.40;9.82;;;0.90;99.90;;;;;;5115653;28;20164;-55
2023/12/02 02:42:06;;;;;;;15.90;11.13;;;0.90;99.90;;;;;;5115105;28;20604;-54
2023/12/02 02:44:34;;;;;;;16.13;10.23;;;0.80;99.90;;;;;;5115195;28;20161;-55
2023/12/02 02:47:00;;;;;;;14.15;9.15;;;0.80;99.90;;;;;;5115042;28;20255;-55
2023/12/02 02:49:25;;;;;;;16.33;9.57;;;0.80;99.90;;;;;;5115102;28;20243;-55
2023/12/02 02:51:51;;;;;;;16.55;10.40;;;0.80;99.90;;;;;;5114930;28;20220;-55
2023/12/02 02:54:16;;;;;;;15.63;9.88;;;0.80;99.90;;;;;;5115023;28;20175;-55
2023/12/02 02:56:43;;;;;;;12.93;8.15;;;0.80;99.90;;;;;;5114907;28;20173;-55
2023/12/02 02:59:09;;;;;;;15.20;10.07;;;0.90;99.90;;;;;;5114826;28;20172;-55
2023/12/02 03:01:34;;;;;;;14.98;8.80;;;0.90;99.90;;;;;;5115229;28;20212;-56
2023/12/02 03:04:00;;;;;;;13.90;8.75;;;0.90;99.90;;;;;;5101838;28;20222;-55
2023/12/02 03:06:25;;;;;;;15.63;9.57;;;1.00;99.90;;;;;;5093744;28;20169;-55
2023/12/02 03:08:51;;;;;;;13.80;9.45;;;1.00;99.90;;;;;;5094532;28;20204;-56
2023/12/02 03:11:17;;;;;;;15.65;9.05;;;1.10;99.90;;;;;;5094250;28;20508;-56
2023/12/02 03:13:42;;;;;;;14.68;9.27;;;1.10;99.90;;;;;;5094194;28;20648;-55
2023/12/02 03:16:08;;;;;;;16.02;9.85;;;1.10;99.90;;;;;;5094154;28;20206;-55
2023/12/02 03:18:34;;;;;;;14.82;9.77;;;1.10;99.90;;;;;;5094547;28;20697;-56
2023/12/02 03:20:59;;;;;;;14.57;9.48;;;1.10;99.90;;;;;;5093919;28;20173;-56
2023/12/02 03:23:25;;;;;;;18.58;9.68;;;1.10;99.90;;;;;;5094009;28;20275;-55
2023/12/02 03:25:51;;;;;;;17.60;9.88;;;1.10;99.90;;;;;;5093885;28;20207;-55
2023/12/02 03:28:18;;;;;;;18.60;10.27;;;1.10;99.90;;;;;;5093951;28;20180;-55
2023/12/02 03:30:43;;;;;;;17.00;9.88;;;1.00;99.90;;;;;;5093981;28;20166;-55
2023/12/02 03:33:09;;;;;;;18.27;9.85;;;0.90;99.90;;;;;;5101612;28;20708;-55
2023/12/02 03:35:35;;;;;;;12.98;9.00;;;0.90;99.90;;;;;;5114569;28;20171;-56
2023/12/02 03:38:00;;;;;;;14.10;9.20;;;0.90;99.90;;;;;;5114059;28;20169;-55
2023/12/02 03:40:26;;;;;;;16.35;10.00;;;0.90;99.90;;;;;;5114163;28;20729;-55
2023/12/02 03:42:51;;;;;;;14.25;9.77;;;0.80;99.90;;;;;;5113932;28;20242;-56
2023/12/02 03:45:17;;;;;;;13.27;9.23;;;0.80;99.90;;;;;;5113986;28;20164;-56
2023/12/02 03:47:43;;;;;;;13.13;8.60;;;0.90;99.90;;;;;;5113927;28;20247;-55
2023/12/02 03:50:09;;;;;;;14.48;8.38;;;0.70;99.90;;;;;;5114147;28;20255;-55
2023/12/02 03:52:34;;;;;;;12.07;7.82;;;0.70;99.90;;;;;;5114113;28;20226;-56
2023/12/02 03:55:01;;;;;;;12.15;8.15;;;0.70;99.90;;;;;;5113864;28;20590;-55
2023/12/02 03:57:27;;;;;;;13.68;7.60;;;0.70;99.90;;;;;;5113644;28;20662;-45
2023/12/02 03:59:53;;;;;;;10.82;7.70;;;0.70;99.90;;;;;;5113980;28;20168;-45
2023/12/02 04:02:18;;;;;;;11.10;7.60;;;0.70;99.90;;;;;;5112564;28;20196;-49
2023/12/02 04:04:44;;;;;;;11.85;7.90;;;0.60;99.90;;;;;;5097719;28;20167;-49
2023/12/02 04:07:09;;;;;;;10.05;7.35;;;0.60;99.90;;;;;;5113515;28;20177;-46
2023/12/02 04:09:35;;;;;;;10.55;6.65;;;0.60;99.90;;;;;;5113849;28;20532;-53
2023/12/02 04:12:00;;;;;;;9.63;7.03;;;0.60;99.90;;;;;;5113490;28;20658;-51
2023/12/02 04:14:26;;;;;;;11.32;7.20;;;0.60;99.90;;;;;;5095394;28;20157;-57
2023/12/02 04:16:51;;;;;;;8.90;5.20;;;0.60;99.90;;;;;;5112845;28;20524;-52
2023/12/02 04:19:17;;;;;;;10.07;6.63;;;0.60;99.90;;;;;;5112783;28;20222;-51
2023/12/02 04:21:44;;;;;;;11.80;8.30;;;0.50;99.90;;;;;;5113246;28;20199;-50
2023/12/02 04:24:10;;;;;;;11.45;8.30;;;0.60;99.90;;;;;;5113324;28;20173;-56
2023/12/02 04:26:37;;;;;;;16.73;8.30;;;0.70;99.90;;;;;;5095460;28;20636;-55
2023/12/02 04:29:03;;;;;;;14.15;9.23;;;0.60;99.90;;;;;;5113505;28;20251;-57
2023/12/02 04:31:30;;;;;;;15.02;9.25;;;0.70;99.90;;;;;;5113023;28;20243;-57
2023/12/02 04:33:55;;;;;;;14.38;9.43;;;0.80;99.90;;;;;;5098448;28;20226;-56
2023/12/02 04:36:21;;;;;;;16.85;10.68;;;0.70;99.90;;;;;;5092610;28;20169;-57
2023/12/02 04:38:47;;;;;;;17.42;11.00;;;0.70;99.90;;;;;;5092561;28;20173;-57
2023/12/02 04:41:12;;;;;;;17.75;10.90;;;0.70;99.90;;;;;;5092445;28;20169;-57
2023/12/02 04:43:38;;;;;;;18.90;10.75;;;0.80;99.90;;;;;;5092418;28;20165;-57
2023/12/02 04:46:06;;;;;;;16.65;11.73;;;0.70;99.90;;;;;;5109859;28;20305;-57
2023/12/02 04:48:32;;;;;;;16.83;10.20;;;0.70;99.90;;;;;;5112602;28;20675;-57
2023/12/02 04:50:57;;;;;;;16.75;9.93;;;0.60;99.90;;;;;;5112562;28;20185;-57
2023/12/02 04:53:23;;;;;;;14.52;9.85;;;0.60;99.90;;;;;;5112616;28;20168;-56
2023/12/02 04:55:49;;;;;;;15.35;10.80;;;0.70;99.90;;;;;;5112596;28;20501;-56
2023/12/02 04:58:14;;;;;;;14.25;9.07;;;0.70;99.90;;;;;;5112761;28;20221;-53
2023/12/02 05:00:40;;;;;;;16.35;10.32;;;0.60;99.90;;;;;;5112415;28;20165;-57
2023/12/02 05:03:06;;;;;;;14.45;9.00;;;0.60;99.90;;;;;;5111979;28;20208;-56
2023/12/02 05:05:32;;;;;;;11.73;8.73;;;0.60;99.90;;;;;;5112329;28;20165;-54
2023/12/02 05:07:57;;;;;;;10.25;7.30;;;0.60;99.90;;;;;;5094402;28;20160;-56
2023/12/02 05:10:23;;;;;;;11.13;7.40;;;0.60;99.90;;;;;;5112051;28;20524;-56
2023/12/02 05:12:49;;;;;;;12.75;8.10;;;0.60;99.90;;;;;;5112477;28;20173;-57
2023/12/02 05:15:15;;;;;;;14.10;9.18;;;0.60;99.90;;;;;;5112145;28;20165;-57
2023/12/02 05:17:40;;;;;;;12.13;8.23;;;0.60;99.90;;;;;;5112570;28;20169;-57
2023/12/02 05:20:08;;;;;;;13.77;8.25;;;0.60;99.90;;;;;;5112622;28;20160;-56
2023/12/02 05:22:34;;;;;;;10.32;6.97;;;0.50;99.90;;;;;;5112463;28;20679;-57
2023/12/02 05:24:59;;;;;;;13.30;9.18;;;0.60;99.90;;;;;;5112101;28;20200;-56
2023/12/02 05:27:25;;;;;;;11.95;8.20;;;0.60;99.90;;;;;;5112027;28;20192;-55
2023/12/02 05:29:50;;;;;;;16.10;9.25;;;0.60;99.90;;;;;;5112051;28;20199;-54
2023/12/02 05:32:16;;;;;;;17.08;10.00;;;0.60;99.90;;;;;;5109611;28;20173;-56
2023/12/02 05:34:41;;;;;;;18.95;11.15;;;0.60;99.90;;;;;;5100845;28;20168;-57
2023/12/02 05:37:07;;;;;;;15.80;10.50;;;0.60;99.90;;;;;;5091114;28;20177;-46
2023/12/02 05:39:34;;;;;;;12.82;9.50;;;0.60;99.90;;;;;;5091446;28;20161;-57
2023/12/02 05:42:00;;;;;;;14.65;10.25;;;0.60;99.90;;;;;;5091279;28;20212;-57
2023/12/02 05:44:26;;;;;;;13.90;9.30;;;0.50;99.90;;;;;;5091370;28;20157;-56
2023/12/02 05:46:51;;;;;;;17.55;10.98;;;0.50;99.90;;;;;;5090910;28;20176;-55
2023/12/02 05:49:17;;;;;;;14.65;9.00;;;0.50;99.90;;;;;;5091024;28;20181;-55
2023/12/02 05:51:42;;;;;;;16.55;9.23;;;0.50;99.90;;;;;;5090864;28;20575;-56
2023/12/02 05:54:11;;;;;;;14.93;9.95;;;0.40;99.90;;;;;;5090909;28;20162;-55
2023/12/02 05:56:36;;;;;;;14.18;8.77;;;0.40;99.90;;;;;;5091285;28;20170;-47
2023/12/02 05:59:02;;;;;;;18.98;10.45;;;0.30;99.90;;;;;;5090903;28;20260;-47
2023/12/02 06:01:27;;;;;;;15.88;9.88;;;0.40;99.90;;;;;;5090901;28;20193;-47
2023/12/02 06:03:53;;;;;;;15.73;9.43;;;0.30;99.90;;;;;;5091158;28;20231;-46
2023/12/02 06:06:19;;;;;;;18.20;11.15;;;0.30;99.90;;;;;;5090926;28;20244;-47
2023/12/02 06:08:45;;;;;;;16.58;11.13;;;0.30;99.90;;;;;;5090915;28;20196;-47
2023/12/02 06:11:10;;;;;;;14.40;9.13;;;0.30;99.90;;;;;;5072607;28;20176;-47
2023/12/02 06:13:36;;;;;;;17.65;10.07;;;0.40;99.90;;;;;;5091137;28;20166;-48
2023/12/02 06:16:01;;;;;;;14.05;9.57;;;0.40;99.90;;;;;;5090701;28;20200;-47
2023/12/02 06:18:27;;;;;;;16.67;9.60;;;0.50;99.90;;;;;;5090685;28;20178;-48
2023/12/02 06:20:53;;;;;;;15.63;9.60;;;0.40;99.90;;;;;;5090731;28;20178;-50
2023/12/02 06:23:19;;;;;;;12.60;9.02;;;0.40;99.90;;;;;;5090850;28;20703;-59
2023/12/02 06:25:44;;;;;;;14.38;9.45;;;0.40;99.90;;;;;;5090650;28;20158;-57
2023/12/02 06:28:10;;;;;;;17.98;9.10;;;0.40;99.90;;;;;;5090609;28;20173;-57
2023/12/02 06:30:35;;;;;;;16.90;10.05;;;0.30;99.90;;;;;;5090971;28;20161;-58
2023/12/02 06:33:01;;;;;;;13.75;9.30;;;0.40;99.90;;;;;;5090766;28;20175;-57
2023/12/02 06:35:26;;;;;;;14.63;8.95;;;0.40;99.90;;;;;;5090540;28;20842;-57
2023/12/02 06:37:52;;;;;;;14.93;8.68;;;0.40;99.90;;;;;;5090690;28;20165;-57
2023/12/02 06:40:17;;;;;;;12.02;7.25;;;0.40;99.90;;;;;;5090578;28;20169;-57
2023/12/02 06:42:43;;;;;;;16.63;8.43;;;0.30;99.90;;;;;;5094180;28;20280;-54
2023/12/02 06:45:09;;;;;;;13.38;7.85;;;0.30;99.90;;;;;;5094247;28;20168;-57
2023/12/02 06:47:35;;;;;;;13.95;8.73;;;0.30;99.90;;;;;;5094886;28;20564;-59
2023/12/02 06:50:00;;;;;;;11.30;7.50;;;0.30;99.90;;;;;;5094162;28;20621;-58
2023/12/02 06:52:26;;;;;;;14.15;7.72;;;0.40;99.90;;;;;;5093944;28;20737;-57
2023/12/02 06:54:51;;;;;;;12.88;8.07;;;0.40;99.90;;;;;;5094077;28;20698;-58
2023/12/02 06:57:17;;;;;;;13.43;8.02;;;0.40;99.90;;;;;;5094018;28;20535;-57
2023/12/02 06:59:45;;;;;;;11.85;7.75;;;0.30;99.90;;;;;;5093992;28;20628;-57
2023/12/02 07:02:12;;;;;;;10.45;6.78;;;0.40;99.90;;;;;;5094432;28;20196;-57
2023/12/02 07:04:37;;;;;;;9.20;6.97;;;0.40;99.90;;;;;;5094191;28;20177;-53
2023/12/02 07:07:03;;;;;;;10.77;7.20;;;0.40;99.90;;;;;;5093939;28;20169;-58
2023/12/02 07:09:28;;;;;;;12.32;7.10;;;0.50;99.90;;;;;;5093326;28;20199;-58
2023/12/02 07:11:54;;;;;;;13.98;7.60;;;0.40;99.90;;;;;;5093686;28;20166;-57
2023/12/02 07:14:19;;;;;;;11.88;6.97;;;0.40;99.90;;;;;;5093726;28;20235;-57
2023/12/02 07:16:45;;;;;;;10.82;6.90;;;0.40;99.90;;;;;;5093982;28;20176;-58
2023/12/02 07:19:10;;;;;;;10.00;7.15;;;0.40;99.90;;;;;;5093592;28;20173;-57
2023/12/02 07:21:36;;;;;;;12.52;7.75;;;0.40;99.90;;;;;;5093824;28;20254;-58
2023/12/02 07:24:02;;;;;;;12.55;7.47;;;2.40;99.90;;;;;;5093515;28;20174;-55
2023/12/02 07:26:28;;;;;;;11.23;6.63;;;0.30;99.90;;;;;;5093465;28;20649;-59
2023/12/02 07:28:53;;;;;;;11.85;7.20;;;0.30;99.90;;;;;;5093711;28;20184;-58
2023/12/02 07:31:19;;;;;;;13.25;7.50;;;0.30;99.90;;;;;;5093404;28;20165;-56
2023/12/02 07:33:45;;;;;;;11.82;6.93;;;0.30;99.90;;;;;;5093399;28;20173;-53
2023/12/02 07:36:11;;;;;;;10.40;7.85;;;0.40;99.90;;;;;;5093086;28;20162;-54
2023/12/02 07:38:38;;;;;;;21.70;8.30;;;0.30;99.90;;;;;;5075575;28;20260;-53
2023/12/02 07:41:04;;;;;;;12.57;7.97;;;0.30;99.90;;;;;;5093580;28;20169;-57
2023/12/02 07:43:30;;;;;;;12.50;7.22;;;0.30;99.90;;;;;;5092791;28;20576;-53
2023/12/02 07:45:56;;;;;;;19.92;10.30;;;0.40;99.90;;;;;;5092872;28;20184;-55
2023/12/02 07:48:21;;;;;;;25.83;10.30;;;0.40;99.90;;;;;;5092713;28;20628;-53
2023/12/02 07:50:47;;;;;;;15.63;8.85;;;0.40;99.90;;;;;;5092702;28;20165;-53
2023/12/02 07:53:12;;;;;;;38.20;14.90;;;0.50;99.90;;;;;;5092418;28;20181;-56
2023/12/02 07:55:38;;;;;;;83.90;25.63;;;0.40;99.90;;;;;;5092843;28;20165;-53
2023/12/02 07:58:04;;;;;;;14.35;8.43;;;0.50;99.90;;;;;;5093226;28;20170;-55
2023/12/02 08:00:29;;;;;;;11.43;7.18;;;0.40;99.90;;;;;;5092483;28;20180;-52
2023/12/02 08:02:55;;;;;;;12.38;6.80;;;0.40;99.90;;;;;;5095511;28;20204;-52
2023/12/02 08:05:20;;;;;;;8.65;5.38;;;0.40;99.90;;;;;;5112376;28;20196;-48
2023/12/02 08:07:46;;;;;;;11.57;7.60;;;0.40;99.90;;;;;;5112961;28;20196;-48
2023/12/02 08:10:12;;;;;;;13.13;6.85;;;0.40;99.90;;;;;;5112878;28;20188;-49
2023/12/02 08:12:37;;;;;;;10.90;6.70;;;0.40;99.90;;;;;;5112805;28;20202;-50
2023/12/02 08:15:04;;;;;;;10.32;6.22;;;0.50;99.90;;;;;;5113324;28;20179;-48
2023/12/02 08:17:30;;;;;;;11.27;6.88;;;0.50;99.90;;;;;;5112733;28;20294;-52
2023/12/02 08:19:55;;;;;;;11.05;6.15;;;0.50;99.90;;;;;;5112322;28;20259;-51
2023/12/02 08:22:24;;;;;;;10.80;6.93;;;0.50;99.90;;;;;;5112360;28;20633;-49
2023/12/02 08:24:52;;;;;;;8.73;6.05;;;0.50;99.90;;;;;;5112265;28;20188;-48
2023/12/02 08:27:18;;;;;;;10.32;6.63;;;0.60;99.90;;;;;;5112454;28;20172;-49
2023/12/02 08:29:44;;;;;;;9.80;6.55;;;0.60;99.90;;;;;;5112525;28;20172;-57
2023/12/02 08:32:10;;;;;;;10.98;6.28;;;0.60;99.90;;;;;;5112353;28;20169;-56
2023/12/02 08:34:36;;;;;;;12.40;7.15;;;0.60;99.90;;;;;;5112500;28;20171;-55
2023/12/02 08:37:01;;;;;;;13.57;7.38;;;0.60;99.90;;;;;;5112319;28;20176;-57
2023/12/02 08:39:27;;;;;;;12.32;6.95;;;0.60;99.90;;;;;;5112400;28;20169;-54
2023/12/02 08:41:53;;;;;;;10.07;6.50;;;0.70;99.90;;;;;;5112419;28;20697;-55
2023/12/02 08:44:18;;;;;;;11.02;6.80;;;0.70;99.90;;;;;;5111781;28;20172;-54
2023/12/02 08:46:44;;;;;;;11.85;6.88;;;0.80;99.90;;;;;;5112263;28;20160;-55
2023/12/02 08:49:09;;;;;;;10.98;6.63;;;0.80;99.90;;;;;;5111790;28;20738;-55
2023/12/02 08:51:35;;;;;;;9.43;6.65;;;0.80;99.90;;;;;;5112018;28;20571;-56
2023/12/02 08:54:01;;;;;;;14.05;7.03;;;0.80;99.90;;;;;;5111902;28;20173;-53
2023/12/02 08:56:28;;;;;;;11.70;7.05;;;1.00;99.90;;;;;;5111938;28;20249;-54
2023/12/02 08:58:54;;;;;;;11.68;7.05;;;1.00;99.90;;;;;;5111679;28;20172;-55
2023/12/02 09:01:20;;;;;;;13.18;7.07;;;1.00;99.90;;;;;;5111002;28;20164;-55
2023/12/02 09:03:46;;;;;;;11.27;7.22;;;1.00;99.90;;;;;;5091120;28;20604;-56
2023/12/02 09:06:11;;;;;;;12.93;7.85;;;0.90;99.90;;;;;;5091598;28;20205;-52
2023/12/02 09:08:37;;;;;;;11.98;7.57;;;1.00;99.90;;;;;;5091383;28;20245;-53
2023/12/02 09:11:04;;;;;;;10.52;7.43;;;1.00;99.90;;;;;;5092065;28;20278;-56
2023/12/02 09:13:32;;;;;;;12.65;7.70;;;1.10;99.90;;;;;;5091608;28;20248;-55
2023/12/02 09:16:00;;;;;;;10.65;6.70;;;1.20;99.90;;;;;;5090837;28;20231;-54
2023/12/02 09:18:28;;;;;;;12.55;7.53;;;1.20;99.90;;;;;;5090752;28;20249;-55
2023/12/02 09:20:55;;;;;;;9.10;6.70;;;1.30;99.90;;;;;;5090671;28;20553;-56
2023/12/02 09:23:21;;;;;;;11.75;7.13;;;1.30;99.90;;;;;;5090845;28;20204;-52
2023/12/02 09:25:48;;;;;;;10.90;7.05;;;1.30;99.90;;;;;;5072709;28;20203;-52
2023/12/02 09:28:17;;;;;;;13.35;7.22;;;1.30;99.90;;;;;;5091236;28;20165;-57
2023/12/02 09:30:55;;;;;;;18.25;8.07;;;1.30;99.90;;;;;;5091389;28;20298;-56
2023/12/02 09:33:20;;;;;;;11.45;7.15;;;1.50;99.90;;;;;;5107568;28;20176;-53
2023/12/02 09:35:54;;;;;;;9.10;6.70;;;1.50;99.90;;;;;;5111310;28;20191;-55
2023/12/02 09:38:20;;;;;;;11.77;7.40;;;1.60;99.90;;;;;;5111594;28;20180;-56
2023/12/02 09:41:27;;;;;;;12.43;7.60;;;1.70;99.90;;;;;;5111422;28;20172;-56
2023/12/02 09:44:09;;;;;;;11.32;7.40;;;1.60;99.90;;;;;;5111677;28;20263;-56
2023/12/02 09:47:00;;;;;;;15.18;9.45;;;1.70;99.90;;;;;;5111725;28;20534;-57
2023/12/02 09:50:04;;;;;;;12.27;7.97;;;1.60;99.90;;;;;;5111322;28;20248;-55
2023/12/02 09:52:55;;;;;;;14.50;9.55;;;1.50;99.90;;;;;;5111194;28;20702;-53
2023/12/02 09:55:38;;;;;;;12.73;8.63;;;1.50;99.90;;;;;;5111512;28;20177;-56
2023/12/02 09:58:32;;;;;;;13.90;9.52;;;0.90;99.90;;;;;;5111763;28;20567;-57
2023/12/02 10:01:07;;;;;;;14.05;9.55;;;1.40;99.90;;;;;;5109319;28;20225;-55
2023/12/02 10:04:03;;;;;;;16.00;9.40;;;1.40;99.90;;;;;;5091227;28;20672;-54
2023/12/02 10:06:42;;;;;;;17.63;10.50;;;1.50;99.90;;;;;;5109708;28;20230;-53
2023/12/02 10:09:22;;;;;;;15.40;10.65;;;1.60;99.90;;;;;;5109887;28;20180;-46
2023/12/02 10:12:06;;;;;;;17.15;10.13;;;1.70;99.90;;;;;;5109682;28;20219;-53
2023/12/02 10:14:35;;;;;;;16.00;10.23;;;1.70;99.90;;;;;;5109747;28;20165;-50
2023/12/02 10:17:02;;;;;;;12.88;7.43;;;1.70;99.90;;;;;;5113815;28;20168;-56
2023/12/02 10:19:51;;;;;;;15.63;9.90;;;1.80;99.90;;;;;;5115187;28;20169;-55
2023/12/02 10:22:19;;;;;;;16.55;10.25;;;1.80;99.90;;;;;;5115096;28;20192;-52
2023/12/02 10:25:05;;;;;;;17.20;10.50;;;1.90;99.90;;;;;;5114979;28;20255;-50
2023/12/02 10:27:36;;;;;;;17.83;10.35;;;1.90;99.90;;;;;;5115023;28;20168;-50
2023/12/02 10:30:15;;;;;;;17.42;9.80;;;1.80;99.90;;;;;;5114950;28;20161;-52
2023/12/02 10:33:02;;;;;;;16.73;9.90;;;1.80;99.90;;;;;;5100892;28;20259;-49
2023/12/02 10:35:39;;;;;;;17.55;10.80;;;1.80;99.90;;;;;;5094465;28;20234;-54
2023/12/02 10:38:27;;;;;;;14.77;10.30;;;1.70;99.90;;;;;;5094861;28;20157;-50
2023/12/02 10:41:23;;;;;;;18.55;10.55;;;1.70;99.90;;;;;;5094607;28;20172;-50
2023/12/02 10:43:54;;;;;;;15.07;10.43;;;1.70;99.90;;;;;;5094096;28;20678;-51
2023/12/02 10:46:21;;;;;;;14.32;9.50;;;1.70;99.90;;;;;;5094042;28;20165;-51
2023/12/02 10:48:48;;;;;;;16.50;10.35;;;1.80;99.90;;;;;;5094039;28;20162;-49
2023/12/02 10:51:15;;;;;;;14.77;9.63;;;1.80;99.90;;;;;;5093864;28;20234;-54
2023/12/02 10:53:43;;;;;;;15.43;9.38;;;1.80;99.90;;;;;;5094108;28;20173;-51
2023/12/02 10:56:16;;;;;;;15.85;10.00;;;1.90;99.90;;;;;;5094026;28;20165;-47
2023/12/02 10:58:45;;;;;;;11.27;8.05;;;2.00;99.90;;;;;;5094020;28;20526;-49
2023/12/02 11:01:10;;;;;;;13.38;9.25;;;2.00;99.90;;;;;;5063465;28;20172;-49
2023/12/02 11:04:18;;;;;;;14.50;9.43;;;2.00;99.90;;;;;;5114805;28;20655;-47
2023/12/02 11:06:51;;;;;;;15.90;9.05;;;2.10;99.90;;;;;;5114414;28;20225;-55
2023/12/02 11:09:51;;;;;;;13.85;8.15;;;2.10;99.90;;;;;;5114174;28;20230;-54
2023/12/02 11:12:34;;;;;;;17.73;8.30;;;1.80;99.90;;;;;;5113983;28;20173;-56
2023/12/02 11:15:04;;;;;;;12.98;8.63;;;1.90;99.90;;;;;;5114129;28;20172;-56
2023/12/02 11:17:37;;;;;;;13.95;9.05;;;2.00;99.90;;;;;;5114034;28;20619;-56
2023/12/02 11:20:22;;;;;;;15.23;9.65;;;2.20;99.90;;;;;;5114433;28;20260;-54
2023/12/02 11:22:56;;;;;;;15.75;9.13;;;2.10;99.90;;;;;;5114131;28;20215;-56
2023/12/02 11:25:28;;;;;;;15.32;11.48;;;2.10;99.90;;;;;;5113831;28;20156;-55
2023/12/02 11:28:03;;;;;;;13.73;8.75;;;2.30;99.90;;;;;;5113313;28;20187;-55
2023/12/02 11:30:57;;;;;;;14.00;10.23;;;2.30;99.90;;;;;;5114052;28;20176;-56
2023/12/02 11:33:53;;;;;;;13.15;9.45;;;2.30;99.90;;;;;;5093243;28;20165;-56
2023/12/02 11:36:35;;;;;;;15.52;10.50;;;2.20;99.90;;;;;;5093344;28;20624;-55
2023/12/02 11:39:33;;;;;;;14.75;9.05;;;2.00;99.90;;;;;;5093319;28;20161;-56
2023/12/02 11:42:13;;;;;;;16.83;10.70;;;1.90;99.90;;;;;;5022365;28;20300;-56
2023/12/02 11:44:48;;;;;;;14.75;10.05;;;1.80;99.90;;;;;;5074822;28;20175;-55
2023/12/02 11:47:23;;;;;;;15.45;9.50;;;1.70;99.90;;;;;;5093301;28;20693;-55
2023/12/02 11:50:07;;;;;;;13.00;8.88;;;1.70;99.90;;;;;;5093305;28;20208;-56
2023/12/02 11:52:51;;;;;;;14.73;10.23;;;1.80;99.90;;;;;;5093280;28;20208;-55
2023/12/02 11:55:28;;;;;;;15.30;9.65;;;1.70;99.90;;;;;;5107046;28;20169;-55
2023/12/02 11:58:02;;;;;;;14.07;9.32;;;1.60;99.90;;;;;;5113638;28;20201;-56
2023/12/02 12:00:47;;;;;;;22.52;12.13;;;1.60;99.90;;;;;;5113198;28;20264;-55
2023/12/02 12:03:34;;;;;;;16.77;10.85;;;1.50;99.90;;;;;;5113032;28;20192;-54
2023/12/02 12:06:19;;;;;;;18.60;10.45;;;1.40;99.90;;;;;;5113289;28;20164;-55
2023/12/02 12:09:02;;;;;;;16.33;9.80;;;1.50;99.90;;;;;;5113018;28;20171;-55
2023/12/02 12:11:29;;;;;;;16.70;9.60;;;1.50;99.90;;;;;;5112939;28;20161;-56
2023/12/02 12:13:56;;;;;;;14.40;9.18;;;1.50;99.90;;;;;;5113099;28;20632;-56
2023/12/02 12:16:21;;;;;;;13.73;9.43;;;1.50;99.90;;;;;;5113187;28;20165;-55
2023/12/02 12:18:47;;;;;;;16.33;9.77;;;1.50;99.90;;;;;;5112969;28;20217;-55
2023/12/02 12:21:12;;;;;;;13.27;9.35;;;1.40;99.90;;;;;;5112725;28;20526;-55
2023/12/02 12:23:38;;;;;;;15.25;10.05;;;1.50;99.90;;;;;;5112239;28;20686;-55
2023/12/02 12:26:05;;;;;;;16.25;10.20;;;1.50;99.90;;;;;;5092796;28;20728;-55
2023/12/02 12:28:32;;;;;;;19.67;10.02;;;1.50;99.90;;;;;;5092435;28;20179;-55
2023/12/02 12:30:57;;;;;;;18.02;10.32;;;1.40;99.90;;;;;;5092469;28;20180;-52
2023/12/02 12:33:23;;;;;;;12.70;8.80;;;1.40;99.90;;;;;;5092174;28;20182;-55
2023/12/02 12:35:49;;;;;;;15.23;9.80;;;1.20;99.90;;;;;;5092104;28;20173;-55
2023/12/02 12:38:15;;;;;;;14.45;10.18;;;1.30;99.90;;;;;;5091403;28;20173;-54
2023/12/02 12:40:42;;;;;;;14.45;9.73;;;1.50;99.90;;;;;;5091691;28;20177;-52
2023/12/02 12:43:09;;;;;;;15.88;9.07;;;1.60;99.90;;;;;;5091939;28;20565;-53
2023/12/02 12:45:34;;;;;;;13.07;8.57;;;1.50;99.90;;;;;;5092479;28;20208;-55
2023/12/02 12:48:01;;;;;;;18.20;9.50;;;1.60;99.90;;;;;;5092401;28;20169;-55
2023/12/02 12:50:30;;;;;;;14.15;8.35;;;1.70;99.90;;;;;;5092069;28;20523;-55
2023/12/02 12:53:06;;;;;;;15.63;10.10;;;1.60;99.90;;;;;;5091475;28;20312;-55